Malvern, United Kingdom
Current Conditions -  °F | °C
As of 7:58 AM on Saturday 25 Oct 2014 (Local Time) from EGVA Reporting Station
Overcast Overcast  
Wind Chill: 45°   Ceiling: 3100
Heat Index: 49°   Visibility: 6mi
Dew Point: 48°   Wind: 8mph
Humidity: 98%   Direction: 230°SW
Pressure: 30.03"   Gusts: NA
Location:  52.05°N, 2.32°W
Report Text: EGVA 250658Z AUTO 23007KT 9999 SCT021 OVC031 09/09 A3003 RMK AO2 RAB0559E0622B0638E0639DZE0649 CIG 024 RWY27 SLP173 P2400 T00940091
Loading
Personal Weather Stations






























Interactive Weather Map New forecast layout! Learn more

10-Day Weather Forecast

Advertisements
Track Severe Weather on mobile